Humidity-temperature Sensor

Selected Measurement Type: Relative Humidity

 
Relative Humidity [%]     6 entries per hour
Showing data from 5/29/2022 (00:00:00 Z) to 5/22/2022 (00:01:00 Z)
Previous Next [ Day | 3-Days | 7-Days ]
First Last
Prev [ Day | 3-Days | 7-Days ] Next
First Last

Start Time:     :
End Time:     :     
Time (in GMT) :00 :50 :40 :30 :20 :10
Previous Next [ Day | 3-Days | 7-Days ]
First Last
Prev [ Day | 3-Days | 7-Days ] Next
First Last


123 => good data
MM => data is determined as missing
-- => data not received/configured
Back to Top Back to Top
5/29/2022 00:00 to 23:10 78.00 78.37 78.08 79.37 78.74 78.08
5/28/2022 23:00 to 22:10 78.06 79.05 80.03 80.96 81.70 81.84
5/28/2022 22:00 to 21:10 82.19 81.96 79.48 78.16 78.94 78.57
5/28/2022 21:00 to 20:10 78.35 78.39 76.99 76.07 76.39 76.39
5/28/2022 20:00 to 19:10 77.46 78.49 80.42 80.94 81.06 79.91
5/28/2022 19:00 to 18:10 78.65 78.74 78.86 79.25 79.62 79.79
5/28/2022 18:00 to 17:10 79.95 80.07 79.64 79.27 78.78 79.31
5/28/2022 17:00 to 16:10 79.68 80.20 80.13 81.12 80.98 81.59
5/28/2022 16:00 to 15:10 81.80 81.78 82.50 82.11 82.13 82.27
5/28/2022 15:00 to 14:10 82.81 83.20 83.13 83.16 83.24 83.13
5/28/2022 14:00 to 13:10 82.76 82.29 82.31 83.30 83.18 82.62
5/28/2022 13:00 to 12:10 83.44 83.87 85.07 85.11 85.27 83.96
5/28/2022 12:00 to 11:10 83.53 82.09 83.13 84.33 84.51 85.83
5/28/2022 11:00 to 10:10 86.18 86.71 86.28 86.16 85.48 84.72
5/28/2022 10:00 to 9:10 85.07 87.68 90.72 91.56 91.29 90.53
5/28/2022 09:00 to 8:10 88.77 86.42 86.09 86.94 87.78 88.35
5/28/2022 08:00 to 7:10 89.28 89.71 90.02 89.55 88.56 88.77
5/28/2022 07:00 to 6:10 86.71 86.94 86.96 86.38 85.72 85.37
5/28/2022 06:00 to 5:10 86.34 86.50 86.46 86.07 86.73 86.16
5/28/2022 05:00 to 4:10 85.76 85.81 85.46 85.79 85.64 86.03
5/28/2022 04:00 to 3:10 86.32 86.53 86.75 86.69 86.36 86.55
5/28/2022 03:00 to 2:10 86.92 87.33 87.45 87.57 88.44 88.66
5/28/2022 02:00 to 1:10 88.54 88.23 88.09 87.55 86.79 87.51
5/28/2022 01:00 to 0:10 87.76 87.57 86.85 86.53 86.48 86.16
5/28/2022 00:00 to 23:10 86.67 86.01 85.37 84.92 85.74 86.85
5/27/2022 23:00 to 22:10 86.85 87.29 87.53 87.18 85.89 85.46
5/27/2022 22:00 to 21:10 85.85 86.57 87.10 87.72 89.20 90.68
5/27/2022 21:00 to 20:10 91.68 91.54 90.14 88.95 88.58 87.00
5/27/2022 20:00 to 19:10 86.77 87.31 88.00 88.07 88.83 89.34
5/27/2022 19:00 to 18:10 89.63 89.98 90.76 91.81 91.89 91.37
5/27/2022 18:00 to 17:10 91.11 90.47 88.56 87.45 87.84 87.51
5/27/2022 17:00 to 16:10 88.33 89.61 90.47 90.39 90.63 90.63
5/27/2022 16:00 to 15:10 90.37 90.20 90.18 90.41 90.86 91.17
5/27/2022 15:00 to 14:10 91.00 91.05 91.25 90.96 89.94 86.79
5/27/2022 14:00 to 13:10 86.92 87.31 86.46 85.91 85.81 85.99
5/27/2022 13:00 to 12:10 86.53 87.04 87.24 87.20 86.28 85.97
5/27/2022 12:00 to 11:10 87.53 88.50 89.28 89.96 90.55 90.86
5/27/2022 11:00 to 10:10 89.81 87.90 86.11 86.11 85.85 85.25
5/27/2022 10:00 to 9:10 84.41 84.78 85.62 85.93 85.72 85.99
5/27/2022 09:00 to 8:10 86.92 86.87 86.71 86.73 86.85 86.92
5/27/2022 08:00 to 7:10 86.92 86.85 87.59 88.37 88.09 88.09
5/27/2022 07:00 to 6:10 87.63 87.78 88.37 88.33 88.35 88.29
5/27/2022 06:00 to 5:10 88.00 87.84 87.80 87.68 86.40 85.68
5/27/2022 05:00 to 4:10 85.05 84.90 84.78 85.19 85.15 84.98
5/27/2022 04:00 to 3:10 84.86 85.35 85.19 85.64 85.72 85.42
5/27/2022 03:00 to 2:10 85.07 84.84 85.00 85.00 85.17 85.05
5/27/2022 02:00 to 1:10 85.03 84.76 84.90 84.63 84.45 83.85
5/27/2022 01:00 to 0:10 83.83 83.98 84.22 84.57 84.66 84.10
5/27/2022 00:00 to 23:10 84.04 84.16 84.31 84.18 84.29 83.57
5/26/2022 23:00 to 22:10 83.36 83.07 83.13 83.38 83.48 84.33
5/26/2022 22:00 to 21:10 84.57 84.10 83.89 84.31 84.22 84.35
5/26/2022 21:00 to 20:10 84.49 83.77 83.92 84.06 84.10 83.75
5/26/2022 20:00 to 19:10 83.85 83.98 84.57 84.51 84.33 84.70
5/26/2022 19:00 to 18:10 84.47 83.55 84.24 83.67 84.10 84.82
5/26/2022 18:00 to 17:10 84.74 84.63 84.45 85.00 85.74 85.89
5/26/2022 17:00 to 16:10 85.39 85.27 85.56 86.42 86.77 86.96
5/26/2022 16:00 to 15:10 87.02 86.75 86.73 86.16 85.66 85.29
5/26/2022 15:00 to 14:10 86.28 85.66 84.90 84.72 84.92 84.98
5/26/2022 14:00 to 13:10 84.84 84.45 84.29 84.96 84.98 85.13
5/26/2022 13:00 to 12:10 85.79 85.48 85.50 86.53 86.67 85.95
5/26/2022 12:00 to 11:10 86.16 86.50 86.59 87.02 87.90 87.26
5/26/2022 11:00 to 10:10 86.73 86.38 86.96 87.08 86.63 87.31
5/26/2022 10:00 to 9:10 87.00 86.24 85.54 86.13 86.28 86.01
5/26/2022 09:00 to 8:10 86.18 85.54 85.39 85.93 85.62 85.23
5/26/2022 08:00 to 7:10 85.48 85.81 86.32 86.92 86.79 87.04
5/26/2022 07:00 to 6:10 86.98 87.82 88.66 88.64 89.59 90.04
5/26/2022 06:00 to 5:10 88.33 87.26 86.63 87.22 87.63 87.43
5/26/2022 05:00 to 4:10 87.20 86.44 86.40 86.24 86.13 85.48
5/26/2022 04:00 to 3:10 85.48 86.85 87.53 86.79 85.97 84.98
5/26/2022 03:00 to 2:10 84.55 84.94 85.27 85.05 84.94 84.80
5/26/2022 02:00 to 1:10 84.51 84.74 84.12 84.61 85.25 84.88
5/26/2022 01:00 to 0:10 84.20 83.28 83.69 84.59 85.21 84.74
5/26/2022 00:00 to 23:10 84.55 84.53 84.57 84.84 85.21 84.98
5/25/2022 23:00 to 22:10 83.63 83.65 84.61 85.35 85.62 84.68
5/25/2022 22:00 to 21:10 84.72 84.92 85.68 85.46 85.56 85.54
5/25/2022 21:00 to 20:10 85.56 85.68 86.09 85.23 85.42 85.07
5/25/2022 20:00 to 19:10 85.00 84.70 85.17 85.58 85.83 85.76
5/25/2022 19:00 to 18:10 85.76 86.98 86.79 86.48 85.85 86.09
5/25/2022 18:00 to 17:10 85.35 85.11 84.98 84.29 83.59 83.92
5/25/2022 17:00 to 16:10 84.12 84.41 84.12 84.35 84.47 84.53
5/25/2022 16:00 to 15:10 84.39 84.53 84.61 84.55 84.68 84.51
5/25/2022 15:00 to 14:10 84.63 84.26 84.26 84.12 84.26 84.04
5/25/2022 14:00 to 13:10 83.94 83.94 84.18 84.43 84.49 84.45
5/25/2022 13:00 to 12:10 84.55 84.94 84.78 85.07 85.00 85.46
5/25/2022 12:00 to 11:10 85.44 85.58 85.31 85.56 85.79 85.93
5/25/2022 11:00 to 10:10 85.72 85.85 85.83 86.11 85.56 85.99
5/25/2022 10:00 to 9:10 85.21 85.03 85.05 85.19 85.52 84.94
5/25/2022 09:00 to 8:10 84.80 84.90 85.07 85.19 85.05 84.35
5/25/2022 08:00 to 7:10 84.61 84.68 84.92 85.48 85.83 85.54
5/25/2022 07:00 to 6:10 84.82 84.39 84.51 84.92 84.80 85.33
5/25/2022 06:00 to 5:10 84.78 84.88 85.23 85.15 85.31 85.62
5/25/2022 05:00 to 4:10 87.43 86.98 85.91 85.97 85.93 86.63
5/25/2022 04:00 to 3:10 88.00 87.37 85.52 85.91 85.85 86.11
5/25/2022 03:00 to 2:10 86.63 87.24 87.29 86.69 86.71 85.79
5/25/2022 02:00 to 1:10 85.48 85.11 85.05 85.03 84.96 85.00
5/25/2022 01:00 to 0:10 84.78 84.94 84.84 84.86 85.76 85.56
5/25/2022 00:00 to 23:10 85.33 85.27 85.50 85.72 85.99 85.68
5/24/2022 23:00 to 22:10 85.50 85.31 85.42 84.94 85.11 84.63
5/24/2022 22:00 to 21:10 84.33 84.12 84.29 83.89 83.87 83.57
5/24/2022 21:00 to 20:10 83.87 84.57 84.86 84.86 84.35 83.96
5/24/2022 20:00 to 19:10 84.10 84.35 84.39 84.47 84.82 85.42
5/24/2022 19:00 to 18:10 85.39 85.54 86.20 85.85 86.13 86.22
5/24/2022 18:00 to 17:10 86.11 85.89 86.07 84.94 85.17 85.85
5/24/2022 17:00 to 16:10 86.20 86.01 86.34 86.69 86.83 87.31
5/24/2022 16:00 to 15:10 87.37 87.47 87.90 88.27 88.13 88.48
5/24/2022 15:00 to 14:10 88.44 88.70 88.62 88.42 87.82 88.33
5/24/2022 14:00 to 13:10 88.58 89.28 90.00 89.05 88.95 88.25
5/24/2022 13:00 to 12:10 87.92 87.49 87.45 87.35 87.88 87.98
5/24/2022 12:00 to 11:10 88.44 88.52 88.21 88.29 88.52 87.74
5/24/2022 11:00 to 10:10 87.66 88.09 87.88 87.94 88.21 89.01
5/24/2022 10:00 to 9:10 89.18 89.24 89.53 90.00 89.13 88.79
5/24/2022 09:00 to 8:10 88.72 88.25 88.19 88.13 87.74 87.98
5/24/2022 08:00 to 7:10 88.68 89.01 89.01 88.97 88.97 88.52
5/24/2022 07:00 to 6:10 87.98 88.40 88.19 87.53 87.86 88.05
5/24/2022 06:00 to 5:10 88.52 88.48 88.29 88.35 88.48 88.40
5/24/2022 05:00 to 4:10 88.48 88.77 88.03 87.74 87.80 87.76
5/24/2022 04:00 to 3:10 88.07 87.90 88.25 88.29 88.03 87.66
5/24/2022 03:00 to 2:10 87.55 87.98 88.60 88.79 89.01 89.05
5/24/2022 02:00 to 1:10 88.60 88.79 89.09 89.65 90.06 90.55
5/24/2022 01:00 to 0:10 90.02 89.55 89.65 88.99 87.86 88.83
5/24/2022 00:00 to 23:10 89.09 89.34 89.28 89.30 88.91 88.97
5/23/2022 23:00 to 22:10 88.99 88.46 88.29 88.62 88.37 87.96
5/23/2022 22:00 to 21:10 87.96 88.17 88.97 88.97 88.48 88.66
5/23/2022 21:00 to 20:10 88.97 89.20 89.40 89.79 89.67 89.79
5/23/2022 20:00 to 19:10 89.44 89.38 89.22 88.89 89.05 89.13
5/23/2022 19:00 to 18:10 89.57 89.73 89.44 89.05 89.07 89.16
5/23/2022 18:00 to 17:10 88.83 88.56 88.29 88.81 88.91 89.30
5/23/2022 17:00 to 16:10 89.24 88.95 89.03 89.20 89.36 89.24
5/23/2022 16:00 to 15:10 89.36 89.71 89.75 89.69 89.71 89.40
5/23/2022 15:00 to 14:10 89.28 89.26 89.38 89.53 89.53 89.55
5/23/2022 14:00 to 13:10 89.59 89.67 89.96 90.00 90.12 89.92
5/23/2022 13:00 to 12:10 89.75 89.92 90.04 90.02 89.90 89.71
5/23/2022 12:00 to 11:10 89.75 90.08 90.22 90.41 90.57 90.43
5/23/2022 11:00 to 10:10 90.61 90.72 90.76 91.05 90.84 90.70
5/23/2022 10:00 to 9:10 90.45 90.55 90.51 90.35 90.06 89.90
5/23/2022 09:00 to 8:10 89.96 89.83 89.79 90.63 90.78 90.72
5/23/2022 08:00 to 7:10 90.24 90.16 89.96 89.67 89.77 89.75
5/23/2022 07:00 to 6:10 89.65 89.61 89.67 90.08 90.31 90.80
5/23/2022 06:00 to 5:10 90.76 90.84 90.70 90.63 90.41 90.10
5/23/2022 05:00 to 4:10 90.08 90.14 89.85 89.85 89.57 89.63
5/23/2022 04:00 to 3:10 89.69 89.61 89.59 89.65 89.73 89.16
5/23/2022 03:00 to 2:10 88.70 88.64 88.81 88.99 89.40 89.65
5/23/2022 02:00 to 1:10 89.81 90.00 90.08 90.08 90.31 90.10
5/23/2022 01:00 to 0:10 90.10 90.24 90.41 90.61 90.63 90.18
5/23/2022 00:00 to 23:10 89.05 87.04 84.68 84.37 83.98 83.71
5/22/2022 23:00 to 22:10 83.57 84.10 84.45 84.49 84.70 84.74
5/22/2022 22:00 to 21:10 84.53 84.84 85.33 84.98 85.21 85.11
5/22/2022 21:00 to 20:10 85.19 85.03 84.61 84.55 84.94 84.90
5/22/2022 20:00 to 19:10 84.68 84.72 84.57 84.35 84.02 83.65
5/22/2022 19:00 to 18:10 83.69 84.35 84.72 84.43 84.51 84.84
5/22/2022 18:00 to 17:10 85.42 85.74 86.34 86.90 87.14 86.87
5/22/2022 17:00 to 16:10 86.92 86.81 86.65 86.36 86.26 86.34
5/22/2022 16:00 to 15:10 86.36 86.11 86.07 86.59 86.81 87.68
5/22/2022 15:00 to 14:10 88.00 88.03 88.00 87.80 87.61 87.20
5/22/2022 14:00 to 13:10 87.16 87.39 87.72 88.46 89.26 89.03
5/22/2022 13:00 to 12:10 87.94 86.85 86.87 86.79 87.18 87.29
5/22/2022 12:00 to 11:10 87.74 86.90 86.90 86.59 86.53 86.32
5/22/2022 11:00 to 10:10 87.22 88.00 88.54 89.07 89.42 89.50
5/22/2022 10:00 to 9:10 89.59 89.67 89.40 89.46 89.73 90.16
5/22/2022 09:00 to 8:10 90.31 90.55 90.78 90.47 89.48 88.79
5/22/2022 08:00 to 7:10 88.89 89.38 89.69 90.00 89.34 87.49
5/22/2022 07:00 to 6:10 87.20 86.96 86.28 86.01 85.85 85.50
5/22/2022 06:00 to 5:10 85.00 84.96 85.05 84.76 84.18 84.49
5/22/2022 05:00 to 4:10 84.41 84.20 83.69 83.48 83.55 83.87
5/22/2022 04:00 to 3:10 84.37 85.17 85.25 84.78 84.92 85.00
5/22/2022 03:00 to 2:10 85.23 85.74 85.15 84.49 84.31 84.08
5/22/2022 02:00 to 1:10 84.51 84.78 85.00 85.09 84.94 85.15
5/22/2022 01:00 to 0:10 85.33 84.96 84.68 84.31 84.55 84.59